sensor_id;sensor_type;location;lat;lon;timestamp;P1;durP1;ratioP1;P2;durP2;ratioP2
19223;SDS011;9746;47.180;9.776;2022-12-11T08:34:56;0.40;;;0.40;;
19223;SDS011;9746;47.180;9.776;2022-12-11T08:37:23;0.40;;;0.40;;
19223;SDS011;9746;47.180;9.776;2022-12-11T08:39:51;0.37;;;0.37;;
19223;SDS011;9746;47.180;9.776;2022-12-11T08:42:19;0.20;;;0.20;;
19223;SDS011;9746;47.180;9.776;2022-12-11T08:44:46;0.50;;;0.50;;
19223;SDS011;9746;47.180;9.776;2022-12-11T08:47:14;0.50;;;0.50;;
19223;SDS011;9746;47.180;9.776;2022-12-11T08:49:44;0.40;;;0.40;;
19223;SDS011;9746;47.180;9.776;2022-12-11T08:52:12;0.33;;;0.33;;
19223;SDS011;9746;47.180;9.776;2022-12-11T08:54:46;0.40;;;0.40;;
19223;SDS011;9746;47.180;9.776;2022-12-11T08:57:13;0.60;;;0.60;;
19223;SDS011;9746;47.180;9.776;2022-12-11T08:59:44;0.30;;;0.30;;
19223;SDS011;9746;47.180;9.776;2022-12-11T09:02:11;0.30;;;0.30;;
19223;SDS011;9746;47.180;9.776;2022-12-11T09:04:40;0.50;;;0.50;;
19223;SDS011;9746;47.180;9.776;2022-12-11T09:07:08;0.30;;;0.30;;
19223;SDS011;9746;47.180;9.776;2022-12-11T09:12:15;0.40;;;0.40;;
19223;SDS011;9746;47.180;9.776;2022-12-11T09:14:43;0.43;;;0.43;;
19223;SDS011;9746;47.180;9.776;2022-12-11T09:17:10;0.37;;;0.37;;
19223;SDS011;9746;47.180;9.776;2022-12-11T09:19:40;0.40;;;0.40;;
19223;SDS011;9746;47.180;9.776;2022-12-11T09:22:07;0.40;;;0.40;;
19223;SDS011;9746;47.180;9.776;2022-12-11T09:27:08;0.40;;;0.40;;
19223;SDS011;9746;47.180;9.776;2022-12-11T09:32:16;0.40;;;0.40;;
19223;SDS011;9746;47.180;9.776;2022-12-11T09:34:48;0.30;;;0.30;;
19223;SDS011;9746;47.180;9.776;2022-12-11T09:37:16;0.40;;;0.40;;
19223;SDS011;9746;47.180;9.776;2022-12-11T09:39:43;0.40;;;0.40;;
19223;SDS011;9746;47.180;9.776;2022-12-11T09:42:13;0.30;;;0.30;;
19223;SDS011;9746;47.180;9.776;2022-12-11T09:44:58;0.40;;;0.40;;
19223;SDS011;9746;47.180;9.776;2022-12-11T09:47:31;0.40;;;0.40;;
19223;SDS011;9746;47.180;9.776;2022-12-11T09:50:11;0.30;;;0.30;;
19223;SDS011;9746;47.180;9.776;2022-12-11T09:52:48;0.37;;;0.37;;
19223;SDS011;9746;47.180;9.776;2022-12-11T09:58:03;0.30;;;0.30;;
19223;SDS011;9746;47.180;9.776;2022-12-11T10:00:40;0.33;;;0.33;;
19223;SDS011;9746;47.180;9.776;2022-12-11T10:06:26;0.30;;;0.30;;
19223;SDS011;9746;47.180;9.776;2022-12-11T10:09:01;0.40;;;0.40;;
19223;SDS011;9746;47.180;9.776;2022-12-11T10:11:41;0.30;;;0.30;;
19223;SDS011;9746;47.180;9.776;2022-12-11T10:14:23;0.30;;;0.30;;
19223;SDS011;9746;47.180;9.776;2022-12-11T10:16:58;0.30;;;0.30;;
19223;SDS011;9746;47.180;9.776;2022-12-11T10:19:31;0.30;;;0.30;;
19223;SDS011;9746;47.180;9.776;2022-12-11T10:22:00;0.30;;;0.30;;
19223;SDS011;9746;47.180;9.776;2022-12-11T10:24:30;0.30;;;0.30;;
19223;SDS011;9746;47.180;9.776;2022-12-11T10:27:09;0.30;;;0.30;;
19223;SDS011;9746;47.180;9.776;2022-12-11T10:29:47;0.30;;;0.30;;
19223;SDS011;9746;47.180;9.776;2022-12-11T10:32:20;0.20;;;0.20;;
19223;SDS011;9746;47.180;9.776;2022-12-11T10:34:56;0.30;;;0.30;;
19223;SDS011;9746;47.180;9.776;2022-12-11T10:37:28;0.20;;;0.20;;
19223;SDS011;9746;47.180;9.776;2022-12-11T10:39:55;0.30;;;0.30;;
19223;SDS011;9746;47.180;9.776;2022-12-11T10:42:22;0.23;;;0.23;;
19223;SDS011;9746;47.180;9.776;2022-12-11T10:47:41;0.30;;;0.30;;
19223;SDS011;9746;47.180;9.776;2022-12-11T10:50:20;0.30;;;0.30;;
19223;SDS011;9746;47.180;9.776;2022-12-11T10:52:49;0.20;;;0.20;;
19223;SDS011;9746;47.180;9.776;2022-12-11T10:55:19;0.30;;;0.30;;
19223;SDS011;9746;47.180;9.776;2022-12-11T10:57:54;0.20;;;0.20;;
19223;SDS011;9746;47.180;9.776;2022-12-11T11:03:01;0.30;;;0.30;;
19223;SDS011;9746;47.180;9.776;2022-12-11T11:05:32;0.30;;;0.30;;
19223;SDS011;9746;47.180;9.776;2022-12-11T11:08:05;0.30;;;0.30;;
19223;SDS011;9746;47.180;9.776;2022-12-11T11:10:53;0.30;;;0.30;;
19223;SDS011;9746;47.180;9.776;2022-12-11T11:13:22;0.27;;;0.27;;
19223;SDS011;9746;47.180;9.776;2022-12-11T11:15:58;0.30;;;0.30;;
19223;SDS011;9746;47.180;9.776;2022-12-11T11:18:27;0.30;;;0.30;;
19223;SDS011;9746;47.180;9.776;2022-12-11T11:20:56;0.20;;;0.20;;
19223;SDS011;9746;47.180;9.776;2022-12-11T11:23:25;0.30;;;0.30;;
19223;SDS011;9746;47.180;9.776;2022-12-11T11:25:54;0.20;;;0.20;;
19223;SDS011;9746;47.180;9.776;2022-12-11T11:28:23;0.20;;;0.20;;
19223;SDS011;9746;47.180;9.776;2022-12-11T11:31:02;0.30;;;0.30;;
19223;SDS011;9746;47.180;9.776;2022-12-11T11:33:32;0.30;;;0.30;;
19223;SDS011;9746;47.180;9.776;2022-12-11T11:36:02;0.30;;;0.30;;
19223;SDS011;9746;47.180;9.776;2022-12-11T11:38:34;0.20;;;0.20;;
19223;SDS011;9746;47.180;9.776;2022-12-11T11:41:11;0.30;;;0.30;;
19223;SDS011;9746;47.180;9.776;2022-12-11T11:43:43;0.30;;;0.30;;
19223;SDS011;9746;47.180;9.776;2022-12-11T11:46:15;0.30;;;0.30;;
19223;SDS011;9746;47.180;9.776;2022-12-11T11:48:49;0.20;;;0.20;;
19223;SDS011;9746;47.180;9.776;2022-12-11T11:51:21;0.20;;;0.20;;
19223;SDS011;9746;47.180;9.776;2022-12-11T11:53:53;0.20;;;0.20;;
19223;SDS011;9746;47.180;9.776;2022-12-11T11:56:25;0.30;;;0.30;;
19223;SDS011;9746;47.180;9.776;2022-12-11T11:59:10;0.20;;;0.20;;
19223;SDS011;9746;47.180;9.776;2022-12-11T12:01:45;0.20;;;0.20;;
19223;SDS011;9746;47.180;9.776;2022-12-11T12:04:13;0.30;;;0.30;;
19223;SDS011;9746;47.180;9.776;2022-12-11T12:06:43;0.20;;;0.20;;
19223;SDS011;9746;47.180;9.776;2022-12-11T12:09:35;0.30;;;0.30;;
19223;SDS011;9746;47.180;9.776;2022-12-11T12:12:13;0.30;;;0.30;;
19223;SDS011;9746;47.180;9.776;2022-12-11T12:14:52;0.30;;;0.30;;
19223;SDS011;9746;47.180;9.776;2022-12-11T12:17:31;0.40;;;0.40;;
19223;SDS011;9746;47.180;9.776;2022-12-11T12:23:14;0.30;;;0.30;;
19223;SDS011;9746;47.180;9.776;2022-12-11T12:26:12;0.40;;;0.40;;
19223;SDS011;9746;47.180;9.776;2022-12-11T12:28:47;0.30;;;0.30;;
19223;SDS011;9746;47.180;9.776;2022-12-11T12:31:26;0.30;;;0.30;;
19223;SDS011;9746;47.180;9.776;2022-12-11T12:34:07;0.30;;;0.30;;
19223;SDS011;9746;47.180;9.776;2022-12-11T12:36:41;0.40;;;0.40;;
19223;SDS011;9746;47.180;9.776;2022-12-11T12:39:17;0.40;;;0.40;;
19223;SDS011;9746;47.180;9.776;2022-12-11T12:41:51;0.30;;;0.30;;
19223;SDS011;9746;47.180;9.776;2022-12-11T12:47:30;0.40;;;0.40;;
19223;SDS011;9746;47.180;9.776;2022-12-11T12:50:02;0.40;;;0.40;;
19223;SDS011;9746;47.180;9.776;2022-12-11T12:52:36;0.30;;;0.30;;
19223;SDS011;9746;47.180;9.776;2022-12-11T12:55:18;0.30;;;0.30;;
19223;SDS011;9746;47.180;9.776;2022-12-11T12:57:48;0.37;;;0.37;;
19223;SDS011;9746;47.180;9.776;2022-12-11T13:00:32;0.40;;;0.40;;
19223;SDS011;9746;47.180;9.776;2022-12-11T13:03:10;0.30;;;0.30;;
19223;SDS011;9746;47.180;9.776;2022-12-11T13:05:41;0.40;;;0.40;;
19223;SDS011;9746;47.180;9.776;2022-12-11T13:08:11;0.30;;;0.30;;
19223;SDS011;9746;47.180;9.776;2022-12-11T13:10:40;0.30;;;0.30;;
19223;SDS011;9746;47.180;9.776;2022-12-11T13:18:33;0.20;;;0.20;;
19223;SDS011;9746;47.180;9.776;2022-12-11T13:24:14;0.30;;;0.30;;
19223;SDS011;9746;47.180;9.776;2022-12-11T13:26:54;0.37;;;0.37;;
19223;SDS011;9746;47.180;9.776;2022-12-11T13:29:28;0.30;;;0.30;;
19223;SDS011;9746;47.180;9.776;2022-12-11T13:32:01;0.40;;;0.40;;
19223;SDS011;9746;47.180;9.776;2022-12-11T13:34:51;0.30;;;0.30;;
19223;SDS011;9746;47.180;9.776;2022-12-11T13:37:23;0.30;;;0.30;;
19223;SDS011;9746;47.180;9.776;2022-12-11T13:42:46;0.27;;;0.27;;
19223;SDS011;9746;47.180;9.776;2022-12-11T13:48:26;0.20;;;0.20;;
19223;SDS011;9746;47.180;9.776;2022-12-11T13:53:33;0.40;;;0.40;;
19223;SDS011;9746;47.180;9.776;2022-12-11T13:56:17;0.40;;;0.40;;
19223;SDS011;9746;47.180;9.776;2022-12-11T13:58:46;0.30;;;0.30;;
19223;SDS011;9746;47.180;9.776;2022-12-11T14:03:47;0.40;;;0.40;;
19223;SDS011;9746;47.180;9.776;2022-12-11T14:06:18;0.30;;;0.30;;
19223;SDS011;9746;47.180;9.776;2022-12-11T14:08:47;0.30;;;0.30;;
19223;SDS011;9746;47.180;9.776;2022-12-11T14:11:20;0.30;;;0.30;;
19223;SDS011;9746;47.180;9.776;2022-12-11T14:13:52;0.37;;;0.37;;
19223;SDS011;9746;47.180;9.776;2022-12-11T14:16:22;0.40;;;0.40;;
19223;SDS011;9746;47.180;9.776;2022-12-11T14:18:52;0.30;;;0.30;;
19223;SDS011;9746;47.180;9.776;2022-12-11T14:21:23;0.30;;;0.30;;
19223;SDS011;9746;47.180;9.776;2022-12-11T14:23:51;0.30;;;0.30;;
19223;SDS011;9746;47.180;9.776;2022-12-11T14:26:23;0.30;;;0.30;;
19223;SDS011;9746;47.180;9.776;2022-12-11T14:28:52;0.30;;;0.30;;
19223;SDS011;9746;47.180;9.776;2022-12-11T14:34:11;0.30;;;0.30;;
19223;SDS011;9746;47.180;9.776;2022-12-11T14:40:03;0.30;;;0.30;;
19223;SDS011;9746;47.180;9.776;2022-12-11T14:42:35;0.30;;;0.30;;
19223;SDS011;9746;47.180;9.776;2022-12-11T14:45:06;0.20;;;0.20;;
19223;SDS011;9746;47.180;9.776;2022-12-11T14:47:41;0.40;;;0.40;;
19223;SDS011;9746;47.180;9.776;2022-12-11T14:50:12;0.50;;;0.50;;
19223;SDS011;9746;47.180;9.776;2022-12-11T14:52:45;0.40;;;0.40;;
19223;SDS011;9746;47.180;9.776;2022-12-11T14:55:16;0.30;;;0.30;;
19223;SDS011;9746;47.180;9.776;2022-12-11T14:57:51;0.30;;;0.30;;
19223;SDS011;9746;47.180;9.776;2022-12-11T15:00:29;0.40;;;0.40;;
19223;SDS011;9746;47.180;9.776;2022-12-11T15:03:02;0.40;;;0.40;;
19223;SDS011;9746;47.180;9.776;2022-12-11T15:05:32;0.40;;;0.40;;
19223;SDS011;9746;47.180;9.776;2022-12-11T15:08:01;0.30;;;0.30;;
19223;SDS011;9746;47.180;9.776;2022-12-11T15:13:35;0.40;;;0.40;;
19223;SDS011;9746;47.180;9.776;2022-12-11T15:16:14;0.50;;;0.50;;
19223;SDS011;9746;47.180;9.776;2022-12-11T15:18:42;0.30;;;0.30;;
19223;SDS011;9746;47.180;9.776;2022-12-11T15:21:14;0.50;;;0.50;;
19223;SDS011;9746;47.180;9.776;2022-12-11T15:23:46;0.40;;;0.40;;
19223;SDS011;9746;47.180;9.776;2022-12-11T15:29:00;0.30;;;0.30;;
19223;SDS011;9746;47.180;9.776;2022-12-11T15:31:30;0.40;;;0.40;;
19223;SDS011;9746;47.180;9.776;2022-12-11T15:33:59;0.40;;;0.40;;
19223;SDS011;9746;47.180;9.776;2022-12-11T15:36:30;0.30;;;0.30;;
19223;SDS011;9746;47.180;9.776;2022-12-11T15:38:59;0.40;;;0.40;;
19223;SDS011;9746;47.180;9.776;2022-12-11T15:41:27;0.40;;;0.40;;
19223;SDS011;9746;47.180;9.776;2022-12-11T15:43:58;0.40;;;0.40;;
19223;SDS011;9746;47.180;9.776;2022-12-11T15:46:34;0.40;;;0.40;;
19223;SDS011;9746;47.180;9.776;2022-12-11T15:49:04;0.50;;;0.50;;
19223;SDS011;9746;47.180;9.776;2022-12-11T15:51:40;0.40;;;0.40;;
19223;SDS011;9746;47.180;9.776;2022-12-11T15:54:07;0.33;;;0.33;;
19223;SDS011;9746;47.180;9.776;2022-12-11T15:59:12;0.40;;;0.40;;
19223;SDS011;9746;47.180;9.776;2022-12-11T16:01:42;0.30;;;0.30;;
19223;SDS011;9746;47.180;9.776;2022-12-11T16:04:10;0.50;;;0.50;;
19223;SDS011;9746;47.180;9.776;2022-12-11T16:06:44;0.50;;;0.50;;
19223;SDS011;9746;47.180;9.776;2022-12-11T16:09:11;0.40;;;0.40;;
19223;SDS011;9746;47.180;9.776;2022-12-11T16:14:16;0.40;;;0.40;;
19223;SDS011;9746;47.180;9.776;2022-12-11T16:16:50;0.50;;;0.50;;
19223;SDS011;9746;47.180;9.776;2022-12-11T16:19:17;0.50;;;0.50;;
19223;SDS011;9746;47.180;9.776;2022-12-11T16:21:46;0.40;;;0.40;;
19223;SDS011;9746;47.180;9.776;2022-12-11T16:24:13;0.50;;;0.50;;
19223;SDS011;9746;47.180;9.776;2022-12-11T16:26:41;0.40;;;0.40;;
19223;SDS011;9746;47.180;9.776;2022-12-11T16:29:09;0.50;;;0.50;;
19223;SDS011;9746;47.180;9.776;2022-12-11T16:34:09;0.50;;;0.50;;
19223;SDS011;9746;47.180;9.776;2022-12-11T16:36:43;0.50;;;0.50;;
19223;SDS011;9746;47.180;9.776;2022-12-11T16:39:10;0.37;;;0.37;;
19223;SDS011;9746;47.180;9.776;2022-12-11T16:41:38;0.40;;;0.40;;
19223;SDS011;9746;47.180;9.776;2022-12-11T16:44:05;0.60;;;0.60;;
19223;SDS011;9746;47.180;9.776;2022-12-11T16:46:33;0.40;;;0.40;;
19223;SDS011;9746;47.180;9.776;2022-12-11T16:49:02;0.50;;;0.50;;
19223;SDS011;9746;47.180;9.776;2022-12-11T16:51:30;0.50;;;0.50;;
19223;SDS011;9746;47.180;9.776;2022-12-11T16:53:57;0.53;;;0.53;;
19223;SDS011;9746;47.180;9.776;2022-12-11T16:56:25;0.60;;;0.60;;
19223;SDS011;9746;47.180;9.776;2022-12-11T16:58:52;0.40;;;0.40;;
19223;SDS011;9746;47.180;9.776;2022-12-11T17:01:20;0.50;;;0.50;;
19223;SDS011;9746;47.180;9.776;2022-12-11T17:03:47;0.40;;;0.40;;
19223;SDS011;9746;47.180;9.776;2022-12-11T17:06:16;0.60;;;0.60;;
19223;SDS011;9746;47.180;9.776;2022-12-11T17:08:44;0.40;;;0.40;;
19223;SDS011;9746;47.180;9.776;2022-12-11T17:11:14;0.50;;;0.50;;
19223;SDS011;9746;47.180;9.776;2022-12-11T17:13:45;0.50;;;0.50;;
19223;SDS011;9746;47.180;9.776;2022-12-11T17:16:15;0.50;;;0.50;;
19223;SDS011;9746;47.180;9.776;2022-12-11T17:18:42;0.40;;;0.40;;
19223;SDS011;9746;47.180;9.776;2022-12-11T17:21:11;0.40;;;0.40;;
19223;SDS011;9746;47.180;9.776;2022-12-11T17:23:42;0.50;;;0.50;;
19223;SDS011;9746;47.180;9.776;2022-12-11T17:26:11;0.60;;;0.60;;
19223;SDS011;9746;47.180;9.776;2022-12-11T17:28:39;0.50;;;0.50;;
19223;SDS011;9746;47.180;9.776;2022-12-11T17:31:19;0.40;;;0.40;;
19223;SDS011;9746;47.180;9.776;2022-12-11T17:33:46;0.50;;;0.50;;
19223;SDS011;9746;47.180;9.776;2022-12-11T17:36:17;0.40;;;0.40;;
19223;SDS011;9746;47.180;9.776;2022-12-11T17:38:48;0.40;;;0.40;;
19223;SDS011;9746;47.180;9.776;2022-12-11T17:41:18;0.40;;;0.40;;
19223;SDS011;9746;47.180;9.776;2022-12-11T17:43:47;0.40;;;0.40;;
19223;SDS011;9746;47.180;9.776;2022-12-11T17:46:15;0.43;;;0.43;;
19223;SDS011;9746;47.180;9.776;2022-12-11T17:48:47;0.63;;;0.63;;
19223;SDS011;9746;47.180;9.776;2022-12-11T17:51:18;0.50;;;0.50;;
19223;SDS011;9746;47.180;9.776;2022-12-11T17:53:50;0.40;;;0.40;;
19223;SDS011;9746;47.180;9.776;2022-12-11T17:56:19;0.33;;;0.33;;
19223;SDS011;9746;47.180;9.776;2022-12-11T17:58:47;0.47;;;0.47;;
19223;SDS011;9746;47.180;9.776;2022-12-11T18:01:14;0.30;;;0.30;;
19223;SDS011;9746;47.180;9.776;2022-12-11T18:03:46;0.60;;;0.60;;
19223;SDS011;9746;47.180;9.776;2022-12-11T18:06:18;0.50;;;0.50;;
19223;SDS011;9746;47.180;9.776;2022-12-11T18:08:47;0.40;;;0.40;;
19223;SDS011;9746;47.180;9.776;2022-12-11T18:11:16;0.60;;;0.60;;
19223;SDS011;9746;47.180;9.776;2022-12-11T18:13:47;0.40;;;0.40;;
19223;SDS011;9746;47.180;9.776;2022-12-11T18:16:17;0.57;;;0.57;;
19223;SDS011;9746;47.180;9.776;2022-12-11T18:21:24;0.40;;;0.40;;
19223;SDS011;9746;47.180;9.776;2022-12-11T18:23:56;0.50;;;0.50;;
19223;SDS011;9746;47.180;9.776;2022-12-11T18:26:26;0.60;;;0.60;;
19223;SDS011;9746;47.180;9.776;2022-12-11T18:28:54;0.50;;;0.50;;
19223;SDS011;9746;47.180;9.776;2022-12-11T18:31:22;0.50;;;0.50;;
19223;SDS011;9746;47.180;9.776;2022-12-11T18:33:50;0.50;;;0.50;;
19223;SDS011;9746;47.180;9.776;2022-12-11T18:36:18;0.50;;;0.50;;
19223;SDS011;9746;47.180;9.776;2022-12-11T18:38:47;0.50;;;0.50;;
19223;SDS011;9746;47.180;9.776;2022-12-11T18:41:15;0.50;;;0.50;;
19223;SDS011;9746;47.180;9.776;2022-12-11T18:43:46;0.50;;;0.50;;
19223;SDS011;9746;47.180;9.776;2022-12-11T18:46:14;0.50;;;0.50;;
19223;SDS011;9746;47.180;9.776;2022-12-11T18:48:44;0.50;;;0.50;;
19223;SDS011;9746;47.180;9.776;2022-12-11T18:51:14;0.50;;;0.50;;
19223;SDS011;9746;47.180;9.776;2022-12-11T18:53:50;0.40;;;0.40;;
19223;SDS011;9746;47.180;9.776;2022-12-11T18:56:18;0.50;;;0.50;;
19223;SDS011;9746;47.180;9.776;2022-12-11T18:58:47;0.40;;;0.40;;
19223;SDS011;9746;47.180;9.776;2022-12-11T19:01:16;0.50;;;0.50;;
19223;SDS011;9746;47.180;9.776;2022-12-11T19:03:46;0.40;;;0.40;;
19223;SDS011;9746;47.180;9.776;2022-12-11T19:06:16;0.57;;;0.57;;
19223;SDS011;9746;47.180;9.776;2022-12-11T19:08:53;0.40;;;0.40;;
19223;SDS011;9746;47.180;9.776;2022-12-11T19:11:23;0.40;;;0.40;;
19223;SDS011;9746;47.180;9.776;2022-12-11T19:13:53;0.70;;;0.70;;
19223;SDS011;9746;47.180;9.776;2022-12-11T19:16:22;0.70;;;0.70;;
19223;SDS011;9746;47.180;9.776;2022-12-11T19:19:04;0.50;;;0.50;;
19223;SDS011;9746;47.180;9.776;2022-12-11T19:21:34;0.40;;;0.40;;
19223;SDS011;9746;47.180;9.776;2022-12-11T19:24:02;0.60;;;0.60;;
19223;SDS011;9746;47.180;9.776;2022-12-11T19:26:31;0.53;;;0.53;;
19223;SDS011;9746;47.180;9.776;2022-12-11T19:29:01;0.50;;;0.50;;
19223;SDS011;9746;47.180;9.776;2022-12-11T19:31:29;0.50;;;0.50;;
19223;SDS011;9746;47.180;9.776;2022-12-11T19:33:58;0.50;;;0.50;;
19223;SDS011;9746;47.180;9.776;2022-12-11T19:36:27;0.70;;;0.70;;
19223;SDS011;9746;47.180;9.776;2022-12-11T19:38:59;0.50;;;0.50;;
19223;SDS011;9746;47.180;9.776;2022-12-11T19:41:27;0.60;;;0.60;;
19223;SDS011;9746;47.180;9.776;2022-12-11T19:44:04;0.60;;;0.60;;
19223;SDS011;9746;47.180;9.776;2022-12-11T19:46:31;0.50;;;0.50;;
19223;SDS011;9746;47.180;9.776;2022-12-11T19:49:04;0.40;;;0.40;;
19223;SDS011;9746;47.180;9.776;2022-12-11T19:51:32;0.40;;;0.40;;
19223;SDS011;9746;47.180;9.776;2022-12-11T19:54:02;0.60;;;0.60;;
19223;SDS011;9746;47.180;9.776;2022-12-11T19:56:31;0.70;;;0.70;;
19223;SDS011;9746;47.180;9.776;2022-12-11T19:59:00;0.50;;;0.50;;
19223;SDS011;9746;47.180;9.776;2022-12-11T20:01:33;0.47;;;0.47;;
19223;SDS011;9746;47.180;9.776;2022-12-11T20:04:05;0.40;;;0.40;;
19223;SDS011;9746;47.180;9.776;2022-12-11T20:06:36;0.40;;;0.40;;
19223;SDS011;9746;47.180;9.776;2022-12-11T20:09:06;0.50;;;0.50;;
19223;SDS011;9746;47.180;9.776;2022-12-11T20:11:36;0.70;;;0.70;;
19223;SDS011;9746;47.180;9.776;2022-12-11T20:14:05;0.40;;;0.40;;
19223;SDS011;9746;47.180;9.776;2022-12-11T20:16:35;0.37;;;0.37;;
19223;SDS011;9746;47.180;9.776;2022-12-11T20:19:03;0.60;;;0.60;;
19223;SDS011;9746;47.180;9.776;2022-12-11T20:21:30;0.30;;;0.30;;
19223;SDS011;9746;47.180;9.776;2022-12-11T20:23:58;0.60;;;0.60;;
19223;SDS011;9746;47.180;9.776;2022-12-11T20:26:25;0.50;;;0.50;;
19223;SDS011;9746;47.180;9.776;2022-12-11T20:28:55;0.60;;;0.60;;
19223;SDS011;9746;47.180;9.776;2022-12-11T20:31:23;0.57;;;0.57;;
19223;SDS011;9746;47.180;9.776;2022-12-11T20:33:53;0.60;;;0.60;;
19223;SDS011;9746;47.180;9.776;2022-12-11T20:36:22;0.60;;;0.60;;
19223;SDS011;9746;47.180;9.776;2022-12-11T20:38:53;0.50;;;0.50;;
19223;SDS011;9746;47.180;9.776;2022-12-11T20:41:22;0.60;;;0.60;;
19223;SDS011;9746;47.180;9.776;2022-12-11T20:43:53;0.70;;;0.70;;
19223;SDS011;9746;47.180;9.776;2022-12-11T20:46:20;0.60;;;0.60;;
19223;SDS011;9746;47.180;9.776;2022-12-11T20:48:54;0.67;;;0.67;;
19223;SDS011;9746;47.180;9.776;2022-12-11T20:51:23;0.60;;;0.60;;
19223;SDS011;9746;47.180;9.776;2022-12-11T20:53:52;0.70;;;0.70;;
19223;SDS011;9746;47.180;9.776;2022-12-11T20:56:23;0.60;;;0.60;;
19223;SDS011;9746;47.180;9.776;2022-12-11T20:58:52;0.50;;;0.50;;
19223;SDS011;9746;47.180;9.776;2022-12-11T21:01:21;0.60;;;0.60;;
19223;SDS011;9746;47.180;9.776;2022-12-11T21:06:43;0.50;;;0.50;;
19223;SDS011;9746;47.180;9.776;2022-12-11T21:09:12;0.50;;;0.50;;
19223;SDS011;9746;47.180;9.776;2022-12-11T21:11:42;0.60;;;0.60;;
19223;SDS011;9746;47.180;9.776;2022-12-11T21:14:09;0.60;;;0.60;;
19223;SDS011;9746;47.180;9.776;2022-12-11T21:16:37;0.60;;;0.60;;
19223;SDS011;9746;47.180;9.776;2022-12-11T21:19:05;0.50;;;0.50;;
19223;SDS011;9746;47.180;9.776;2022-12-11T21:21:34;0.40;;;0.40;;
19223;SDS011;9746;47.180;9.776;2022-12-11T21:24:04;0.60;;;0.60;;
19223;SDS011;9746;47.180;9.776;2022-12-11T21:26:32;0.60;;;0.60;;
19223;SDS011;9746;47.180;9.776;2022-12-11T21:28:59;0.60;;;0.60;;
19223;SDS011;9746;47.180;9.776;2022-12-11T21:31:26;0.57;;;0.57;;
19223;SDS011;9746;47.180;9.776;2022-12-11T21:33:55;0.50;;;0.50;;
19223;SDS011;9746;47.180;9.776;2022-12-11T21:36:22;0.43;;;0.43;;
19223;SDS011;9746;47.180;9.776;2022-12-11T21:38:58;0.57;;;0.57;;
19223;SDS011;9746;47.180;9.776;2022-12-11T21:41:26;0.50;;;0.50;;
19223;SDS011;9746;47.180;9.776;2022-12-11T21:43:55;0.60;;;0.60;;
19223;SDS011;9746;47.180;9.776;2022-12-11T21:46:24;0.60;;;0.60;;
19223;SDS011;9746;47.180;9.776;2022-12-11T21:48:54;0.50;;;0.50;;
19223;SDS011;9746;47.180;9.776;2022-12-11T21:51:22;0.53;;;0.53;;
19223;SDS011;9746;47.180;9.776;2022-12-11T21:53:53;0.60;;;0.60;;
19223;SDS011;9746;47.180;9.776;2022-12-11T21:56:23;0.50;;;0.50;;
19223;SDS011;9746;47.180;9.776;2022-12-11T21:58:53;0.50;;;0.50;;
19223;SDS011;9746;47.180;9.776;2022-12-11T22:01:21;0.50;;;0.50;;
19223;SDS011;9746;47.180;9.776;2022-12-11T22:03:51;0.40;;;0.40;;
19223;SDS011;9746;47.180;9.776;2022-12-11T22:06:19;0.53;;;0.53;;
19223;SDS011;9746;47.180;9.776;2022-12-11T22:08:46;0.40;;;0.40;;
19223;SDS011;9746;47.180;9.776;2022-12-11T22:11:14;0.50;;;0.50;;
